Time;durP1;ratioP1;P1;durP2;ratioP2;P2;SDS_P1;SDS_P2;PMS_P1;PMS_P2;Temp;Humidity;BMP_temperature;BMP_pressure;BME280_temperature;BME280_humidity;BME280_pressure;Samples;Min_cycle;Max_cycle;Signal;HPM_P1;HPM_P2
2021/10/26 00:01:05;;;;;;;9.23;8.50;;;7.40;99.90;;;;;;5118410;28;20631;-95
2021/10/26 00:03:32;;;;;;;9.37;8.67;;;7.40;99.90;;;;;;5114080;28;20631;-94
2021/10/26 00:06:00;;;;;;;7.70;7.10;;;7.40;99.90;;;;;;5108473;28;20663;-93
2021/10/26 00:08:26;;;;;;;7.67;6.97;;;7.40;99.90;;;;;;5089600;28;20624;-94
2021/10/26 00:10:54;;;;;;;8.40;7.73;;;7.30;99.90;;;;;;5092601;28;20632;-96
2021/10/26 00:13:23;;;;;;;8.83;8.13;;;7.40;99.90;;;;;;5087186;28;20628;-94
2021/10/26 00:15:53;;;;;;;9.20;8.40;;;7.40;99.90;;;;;;5088546;28;20636;-95
2021/10/26 00:18:23;;;;;;;8.60;7.90;;;7.40;99.90;;;;;;5083546;28;20639;-96
2021/10/26 00:21:02;;;;;;;9.00;8.10;;;7.40;99.90;;;;;;5098356;28;20616;-96
2021/10/26 00:23:29;;;;;;;8.73;7.90;;;7.40;99.90;;;;;;5086338;28;20631;-95
2021/10/26 00:25:58;;;;;;;8.67;7.83;;;7.30;99.90;;;;;;5086440;28;20630;-95
2021/10/26 00:28:27;;;;;;;9.13;8.33;;;7.20;99.90;;;;;;5089310;28;20647;-96
2021/10/26 00:30:55;;;;;;;10.00;9.13;;;7.20;99.90;;;;;;5090512;28;20640;-96
2021/10/26 00:33:23;;;;;;;9.87;8.53;;;7.20;99.90;;;;;;5087741;28;20628;-96
2021/10/26 00:35:51;;;;;;;9.13;8.43;;;7.20;99.90;;;;;;5087914;28;20669;-95
2021/10/26 00:38:24;;;;;;;9.70;8.73;;;7.30;99.90;;;;;;5089178;28;20624;-96
2021/10/26 00:41:08;;;;;;;8.67;8.07;;;7.30;99.90;;;;;;5089858;28;20624;-96
2021/10/26 01:05:07;;;;;;;9.40;8.60;;;7.60;99.90;;;;;;5625540;22;21049;-95
2021/10/26 01:07:41;;;;;;;9.10;8.40;;;7.70;99.90;;;;;;5049666;28;20629;-96
2021/10/26 01:10:09;;;;;;;9.40;8.60;;;7.70;99.90;;;;;;5036807;28;21229;-96
2021/10/26 01:12:42;;;;;;;8.80;8.10;;;7.90;99.90;;;;;;5019420;28;20627;-95
2021/10/26 01:18:24;;;;;;;8.33;7.63;;;8.00;99.90;;;;;;5010585;28;21292;-96
2021/10/26 01:20:53;;;;;;;8.90;8.10;;;8.10;99.90;;;;;;5034624;28;20713;-95
2021/10/26 01:23:21;;;;;;;10.13;9.27;;;8.20;99.90;;;;;;5035536;28;20674;-95
2021/10/26 01:25:49;;;;;;;9.20;8.40;;;8.30;99.90;;;;;;5033874;28;20641;-95
2021/10/26 01:28:24;;;;;;;8.70;8.00;;;8.10;99.90;;;;;;5034051;28;20626;-95
2021/10/26 01:30:51;;;;;;;9.27;8.50;;;8.20;99.90;;;;;;5033908;28;20695;-95
2021/10/26 01:33:18;;;;;;;10.30;9.30;;;8.20;99.90;;;;;;5032137;28;20689;-96
2021/10/26 01:36:17;;;;;;;9.57;8.53;;;8.20;99.90;;;;;;5026862;28;20639;-96
2021/10/26 01:38:44;;;;;;;9.57;8.67;;;8.30;99.90;;;;;;5038032;28;20629;-95
2021/10/26 01:41:14;;;;;;;8.90;8.20;;;8.30;99.90;;;;;;5036797;28;21214;-95
2021/10/26 01:43:55;;;;;;;8.70;7.90;;;8.30;99.90;;;;;;5036578;28;20661;-96
2021/10/26 01:46:22;;;;;;;8.63;7.93;;;8.30;99.90;;;;;;5034795;28;21062;-95
2021/10/26 01:48:51;;;;;;;9.30;8.50;;;8.40;99.90;;;;;;5051191;28;20645;-94
2021/10/26 01:51:20;;;;;;;10.60;8.90;;;8.40;99.90;;;;;;5061582;28;20662;-95
2021/10/26 01:53:47;;;;;;;9.20;8.50;;;8.40;99.90;;;;;;5063933;28;20638;-95
2021/10/26 01:56:19;;;;;;;9.10;8.40;;;8.50;99.90;;;;;;5048083;28;21038;-96
2021/10/26 01:58:47;;;;;;;8.37;7.67;;;8.40;99.90;;;;;;5044727;28;20637;-96
2021/10/26 02:01:15;;;;;;;8.40;7.80;;;8.50;99.90;;;;;;5036846;28;20627;-96
2021/10/26 02:07:01;;;;;;;9.00;8.20;;;8.40;99.90;;;;;;5359327;23;20686;-96
2021/10/26 02:09:51;;;;;;;9.07;8.37;;;8.40;99.90;;;;;;5015977;28;20655;-96
2021/10/26 02:12:20;;;;;;;9.70;8.90;;;8.30;99.90;;;;;;5026542;28;20649;-96
2021/10/26 02:14:46;;;;;;;8.97;8.27;;;8.30;99.90;;;;;;5014089;28;20663;-94
2021/10/26 02:17:14;;;;;;;9.40;8.50;;;8.30;99.90;;;;;;5016441;28;20664;-96
2021/10/26 02:19:42;;;;;;;9.53;8.67;;;8.40;99.90;;;;;;5017921;28;20678;-96
2021/10/26 02:22:14;;;;;;;10.00;8.87;;;8.40;99.90;;;;;;5022132;28;20670;-96
2021/10/26 02:24:41;;;;;;;10.37;9.53;;;8.40;99.90;;;;;;5014294;28;20664;-95
2021/10/26 02:27:08;;;;;;;9.43;8.70;;;8.30;99.90;;;;;;5015279;28;20655;-94
2021/10/26 02:29:35;;;;;;;9.67;8.57;;;8.30;99.90;;;;;;5015742;28;20642;-96
2021/10/26 02:32:19;;;;;;;9.87;9.10;;;8.40;99.90;;;;;;5015826;28;20671;-96
2021/10/26 02:34:47;;;;;;;11.37;10.37;;;8.30;99.90;;;;;;5009577;28;21025;-95
2021/10/26 02:37:15;;;;;;;10.00;9.10;;;8.20;99.90;;;;;;5021220;28;20683;-94
2021/10/26 02:39:49;;;;;;;10.70;9.80;;;8.20;99.90;;;;;;5018348;28;20722;-94
2021/10/26 02:42:17;;;;;;;12.03;9.63;;;8.10;99.90;;;;;;5015597;28;20708;-94
2021/10/26 02:44:44;;;;;;;10.77;9.93;;;8.10;99.90;;;;;;5016484;28;21013;-95
2021/10/26 02:47:11;;;;;;;10.17;9.40;;;8.10;99.90;;;;;;5017592;28;20635;-95
2021/10/26 02:49:43;;;;;;;10.10;9.30;;;8.10;99.90;;;;;;5027502;28;20978;-95
2021/10/26 02:52:20;;;;;;;10.80;10.00;;;8.20;99.90;;;;;;5035439;28;20650;-95
2021/10/26 02:54:55;;;;;;;11.57;10.67;;;8.20;99.90;;;;;;5034402;28;20667;-96
2021/10/26 02:57:22;;;;;;;11.30;10.30;;;8.10;99.90;;;;;;5034868;28;20722;-93
2021/10/26 02:59:49;;;;;;;10.33;9.33;;;8.00;99.90;;;;;;5036553;28;20636;-94
2021/10/26 03:02:16;;;;;;;10.63;9.67;;;8.00;99.90;;;;;;5034580;28;20630;-93
2021/10/26 03:04:44;;;;;;;10.87;9.87;;;8.00;99.90;;;;;;5028009;28;20651;-95
2021/10/26 03:07:11;;;;;;;11.90;10.90;;;7.90;99.90;;;;;;5021906;28;20651;-96
2021/10/26 03:09:40;;;;;;;13.10;12.00;;;8.10;99.90;;;;;;5016434;28;20734;-95
2021/10/26 03:12:08;;;;;;;12.53;11.43;;;8.10;99.90;;;;;;5018514;28;20679;-95
2021/10/26 03:14:37;;;;;;;12.80;11.80;;;8.10;99.90;;;;;;5017557;28;20666;-96
2021/10/26 03:22:31;;;;;;;11.50;10.50;;;8.00;99.90;;;;;;5006100;28;20624;-96
2021/10/26 03:25:00;;;;;;;12.00;11.10;;;8.00;99.90;;;;;;5014349;28;21065;-96
2021/10/26 03:30:10;;;;;;;12.70;11.60;;;7.80;99.90;;;;;;5017273;28;20691;-96
2021/10/26 03:32:38;;;;;;;12.03;10.80;;;7.80;99.90;;;;;;5017124;28;20627;-96
2021/10/26 03:35:06;;;;;;;12.27;11.07;;;7.70;99.90;;;;;;5018704;28;21244;-96
2021/10/26 03:40:33;;;;;;;13.13;12.10;;;7.70;99.90;;;;;;5017128;28;21221;-94
2021/10/26 03:43:01;;;;;;;11.90;10.80;;;7.60;99.90;;;;;;5013540;28;20627;-94
2021/10/26 03:45:28;;;;;;;12.80;11.60;;;7.60;99.90;;;;;;5011719;28;21038;-94
2021/10/26 03:47:55;;;;;;;12.40;11.40;;;7.70;99.90;;;;;;5014701;28;20634;-96
2021/10/26 03:50:23;;;;;;;10.57;9.77;;;7.60;99.90;;;;;;5013181;28;20751;-96
2021/10/26 03:52:52;;;;;;;12.97;11.57;;;7.70;99.90;;;;;;5015018;28;20646;-96
2021/10/26 03:55:20;;;;;;;13.27;12.23;;;7.60;99.90;;;;;;5012012;28;20650;-96
2021/10/26 03:57:49;;;;;;;12.27;11.27;;;7.60;99.90;;;;;;5016590;28;21214;-94
2021/10/26 04:00:17;;;;;;;12.63;11.50;;;7.60;99.90;;;;;;5014529;28;21237;-93
2021/10/26 04:02:48;;;;;;;11.53;10.63;;;7.70;99.90;;;;;;5015452;28;20668;-95
2021/10/26 04:05:20;;;;;;;11.50;10.60;;;7.70;99.90;;;;;;5014027;28;20659;-94
2021/10/26 04:07:52;;;;;;;13.10;12.10;;;7.60;99.90;;;;;;5009054;28;20631;-94
2021/10/26 04:10:30;;;;;;;11.80;10.77;;;7.60;99.90;;;;;;5011649;28;20670;-94
2021/10/26 04:13:03;;;;;;;12.50;11.50;;;7.60;99.90;;;;;;5007964;28;20663;-95
2021/10/26 04:15:37;;;;;;;12.23;11.30;;;7.70;99.90;;;;;;5012736;28;20669;-95
2021/10/26 04:18:04;;;;;;;13.37;12.27;;;7.80;99.90;;;;;;5016569;28;20658;-94
2021/10/26 04:20:37;;;;;;;12.73;11.67;;;7.80;99.90;;;;;;5012800;28;21507;-95
2021/10/26 04:23:06;;;;;;;12.70;11.60;;;7.80;99.90;;;;;;5013278;28;20640;-94
2021/10/26 04:25:33;;;;;;;12.30;11.40;;;7.70;99.90;;;;;;5011971;28;20651;-95
2021/10/26 04:28:04;;;;;;;12.80;11.60;;;7.70;99.90;;;;;;5016038;28;20719;-94
2021/10/26 04:30:33;;;;;;;13.70;12.50;;;7.60;99.90;;;;;;5015403;28;20719;-95
2021/10/26 04:33:00;;;;;;;11.80;10.70;;;7.70;99.90;;;;;;5011672;28;20643;-95
2021/10/26 04:35:30;;;;;;;12.57;11.57;;;7.80;99.90;;;;;;5015306;28;20658;-95
2021/10/26 04:37:57;;;;;;;13.47;12.27;;;7.80;99.90;;;;;;5015709;28;20664;-96
2021/10/26 04:40:31;;;;;;;13.63;12.53;;;7.90;99.90;;;;;;5015494;28;20725;-96
2021/10/26 04:43:09;;;;;;;13.40;12.23;;;7.80;99.90;;;;;;5016836;28;20628;-95
2021/10/26 04:45:36;;;;;;;12.13;11.23;;;7.90;99.90;;;;;;5017599;28;20689;-96
2021/10/26 04:48:06;;;;;;;12.13;11.23;;;7.90;99.90;;;;;;5023962;28;21236;-95
2021/10/26 04:50:35;;;;;;;13.30;12.30;;;7.90;99.90;;;;;;5018446;28;20627;-96
2021/10/26 04:53:04;;;;;;;12.70;11.70;;;7.90;99.90;;;;;;5017304;28;20630;-94
2021/10/26 04:55:31;;;;;;;13.67;12.57;;;7.90;99.90;;;;;;5016320;28;20664;-94
2021/10/26 04:57:58;;;;;;;13.50;12.20;;;7.90;99.90;;;;;;5016368;28;21210;-94
2021/10/26 05:00:29;;;;;;;11.73;10.73;;;7.90;99.90;;;;;;5020811;28;20694;-94
2021/10/26 05:03:10;;;;;;;13.80;12.50;;;8.00;99.90;;;;;;5015599;28;20639;-95
2021/10/26 05:05:37;;;;;;;12.13;11.13;;;8.00;99.90;;;;;;5017111;28;20670;-95
2021/10/26 05:08:06;;;;;;;12.17;11.17;;;8.10;99.90;;;;;;5016884;28;20695;-94
2021/10/26 05:10:33;;;;;;;12.17;11.17;;;8.10;99.90;;;;;;5018066;28;20630;-94
2021/10/26 05:13:02;;;;;;;12.67;11.47;;;8.10;99.90;;;;;;5019583;28;20734;-94
2021/10/26 05:15:36;;;;;;;13.90;12.50;;;8.10;99.90;;;;;;5019192;28;20653;-94
2021/10/26 05:18:14;;;;;;;13.17;11.83;;;8.20;99.90;;;;;;5017081;28;20695;-95
2021/10/26 05:20:42;;;;;;;12.80;11.80;;;8.20;99.90;;;;;;5020611;28;20643;-94
2021/10/26 05:23:10;;;;;;;19.17;17.57;;;8.10;99.90;;;;;;5028439;28;20659;-95
2021/10/26 05:25:51;;;;;;;16.20;14.90;;;8.10;99.90;;;;;;5018011;28;20664;-93
2021/10/26 05:28:22;;;;;;;13.77;12.57;;;8.20;99.90;;;;;;5017230;28;20651;-94
2021/10/26 05:30:53;;;;;;;12.73;11.57;;;8.10;99.90;;;;;;5017574;28;20714;-95
2021/10/26 05:33:28;;;;;;;14.23;12.90;;;8.10;99.90;;;;;;5017516;28;20710;-94
2021/10/26 05:35:55;;;;;;;17.93;12.30;;;8.10;99.90;;;;;;5015988;28;21309;-95
2021/10/26 05:38:23;;;;;;;12.90;11.90;;;8.10;99.90;;;;;;5021032;28;20655;-94
2021/10/26 05:41:04;;;;;;;12.60;11.70;;;8.00;99.90;;;;;;5030283;28;20747;-95
2021/10/26 05:43:31;;;;;;;15.20;13.90;;;8.00;99.90;;;;;;5023402;28;20722;-95
2021/10/26 05:48:43;;;;;;;13.10;12.10;;;8.00;99.90;;;;;;5017599;28;20604;-93
2021/10/26 05:51:10;;;;;;;14.27;13.17;;;7.90;99.90;;;;;;5020186;28;20727;-93
2021/10/26 05:53:38;;;;;;;13.07;11.87;;;8.00;99.90;;;;;;5037087;28;20635;-95
2021/10/26 05:56:06;;;;;;;13.60;12.20;;;8.00;99.90;;;;;;5029612;28;20766;-95
2021/10/26 06:02:29;;;;;;;14.60;13.40;;;8.10;99.90;;;;;;5040471;28;20599;-94
2021/10/26 06:07:42;;;;;;;14.50;13.40;;;8.10;99.90;;;;;;5035955;28;20612;-96
2021/10/26 06:12:51;;;;;;;13.47;12.37;;;8.10;99.90;;;;;;5968132;23;21787;-95
2021/10/26 06:15:18;;;;;;;13.60;12.60;;;8.10;99.90;;;;;;5050171;28;21078;-92
2021/10/26 06:17:47;;;;;;;13.50;12.50;;;8.10;99.90;;;;;;5049410;28;20666;-93
2021/10/26 06:20:14;;;;;;;13.30;12.20;;;8.20;99.90;;;;;;5045140;28;20727;-94
2021/10/26 06:22:41;;;;;;;12.80;11.80;;;8.20;99.90;;;;;;5025842;28;20747;-94
2021/10/26 06:25:09;;;;;;;13.23;12.03;;;8.20;99.90;;;;;;5025696;28;20727;-96
2021/10/26 06:27:43;;;;;;;13.43;12.33;;;8.20;99.90;;;;;;5030016;28;20635;-93
2021/10/26 06:30:13;;;;;;;13.93;12.80;;;8.30;99.90;;;;;;5025158;28;20700;-95
2021/10/26 06:32:41;;;;;;;12.73;11.83;;;8.30;99.90;;;;;;5017626;28;20640;-94
2021/10/26 06:35:44;;;;;;;13.10;11.90;;;8.40;99.90;;;;;;5026668;28;20663;-95
2021/10/26 06:38:13;;;;;;;13.00;11.97;;;8.50;99.90;;;;;;5017676;28;21228;-94
2021/10/26 06:40:41;;;;;;;13.40;12.30;;;8.50;99.90;;;;;;5015846;28;20714;-94
2021/10/26 06:43:08;;;;;;;12.43;11.43;;;8.50;99.90;;;;;;5016940;28;20632;-93
2021/10/26 06:45:39;;;;;;;13.20;12.10;;;8.60;99.90;;;;;;5014631;28;20721;-93
2021/10/26 06:48:08;;;;;;;12.03;11.13;;;8.60;99.90;;;;;;5012483;28;21250;-92
2021/10/26 06:50:45;;;;;;;12.97;12.00;;;8.70;99.90;;;;;;5007690;28;20636;-92
2021/10/26 06:53:12;;;;;;;12.87;11.97;;;8.90;99.90;;;;;;5015734;28;20719;-93
2021/10/26 06:56:11;;;;;;;13.83;12.63;;;8.80;99.90;;;;;;5013152;28;20678;-92
2021/10/26 06:58:38;;;;;;;12.40;11.40;;;8.80;99.90;;;;;;5012061;28;20678;-90
2021/10/26 07:01:08;;;;;;;12.93;11.80;;;8.80;99.90;;;;;;5033733;28;20636;-92
2021/10/26 07:03:36;;;;;;;11.60;10.70;;;8.80;99.90;;;;;;5031376;28;20640;-91
2021/10/26 07:06:06;;;;;;;13.33;12.30;;;8.90;99.90;;;;;;5032511;28;20651;-92
2021/10/26 07:08:35;;;;;;;11.20;10.40;;;8.90;99.90;;;;;;5028842;28;20658;-92
2021/10/26 07:11:04;;;;;;;11.80;10.67;;;8.90;99.90;;;;;;5028493;28;20612;-90
2021/10/26 07:13:35;;;;;;;12.00;11.07;;;8.90;99.90;;;;;;5028470;28;20711;-92
2021/10/26 07:16:02;;;;;;;11.37;10.50;;;9.00;99.90;;;;;;5029445;28;20654;-90
2021/10/26 07:18:31;;;;;;;13.00;11.87;;;9.00;99.90;;;;;;5017554;28;21523;-92
2021/10/26 07:20:59;;;;;;;12.70;11.67;;;9.10;99.90;;;;;;5011741;28;20756;-91
2021/10/26 07:23:31;;;;;;;14.30;13.20;;;9.20;99.90;;;;;;5016768;28;20655;-92
2021/10/26 07:25:58;;;;;;;12.70;11.67;;;9.20;99.90;;;;;;5014145;28;20682;-92
2021/10/26 07:28:27;;;;;;;13.70;12.50;;;9.20;99.90;;;;;;5011330;28;20623;-91
2021/10/26 07:31:00;;;;;;;21.47;19.57;;;9.30;99.90;;;;;;5006467;28;20620;-92
2021/10/26 07:33:32;;;;;;;15.50;14.30;;;9.40;99.90;;;;;;5013142;28;20627;-91
2021/10/26 07:36:02;;;;;;;14.33;13.10;;;9.40;99.90;;;;;;5011371;28;20648;-92
2021/10/26 07:38:35;;;;;;;15.00;13.70;;;9.30;99.90;;;;;;4995901;28;20662;-92
2021/10/26 07:41:03;;;;;;;16.93;15.30;;;9.30;99.90;;;;;;5004288;28;20749;-92
2021/10/26 07:43:33;;;;;;;14.50;13.20;;;9.30;99.90;;;;;;5012912;28;21354;-92
2021/10/26 07:46:05;;;;;;;14.87;13.57;;;9.40;99.90;;;;;;4992024;28;21245;-91
2021/10/26 07:48:32;;;;;;;14.83;13.57;;;9.40;99.90;;;;;;4990154;28;20621;-93
2021/10/26 07:51:02;;;;;;;14.30;13.10;;;9.50;99.90;;;;;;5006783;28;20665;-94
2021/10/26 07:53:36;;;;;;;14.20;12.90;;;9.50;99.90;;;;;;5009916;28;20712;-91
2021/10/26 07:56:08;;;;;;;12.30;11.30;;;9.60;99.90;;;;;;4991437;28;20666;-91
2021/10/26 07:58:36;;;;;;;13.70;12.60;;;9.80;99.90;;;;;;5013648;28;20659;-90
2021/10/26 08:01:10;;;;;;;14.50;13.20;;;9.90;99.90;;;;;;5009786;28;20999;-90
2021/10/26 08:03:40;;;;;;;13.40;12.20;;;10.10;99.90;;;;;;5008549;28;20738;-89
2021/10/26 08:06:09;;;;;;;13.00;11.90;;;10.20;99.90;;;;;;4972069;28;20662;-90
2021/10/26 08:08:39;;;;;;;12.50;11.20;;;10.20;99.90;;;;;;5007603;28;20608;-90
2021/10/26 08:11:09;;;;;;;13.13;11.93;;;10.40;99.90;;;;;;5003398;28;20706;-91
2021/10/26 08:13:36;;;;;;;14.17;12.80;;;10.60;99.90;;;;;;5017755;28;20623;-92
2021/10/26 08:16:03;;;;;;;13.63;12.50;;;10.70;99.90;;;;;;5006232;28;20655;-91
2021/10/26 08:18:30;;;;;;;13.40;12.20;;;10.70;99.90;;;;;;5011078;28;20655;-89
2021/10/26 08:20:57;;;;;;;13.13;11.93;;;10.70;99.90;;;;;;5013409;28;20631;-89
2021/10/26 08:23:24;;;;;;;12.37;11.33;;;10.80;99.90;;;;;;5009454;28;20997;-89
2021/10/26 08:25:53;;;;;;;13.23;11.93;;;10.80;99.90;;;;;;5008815;28;20651;-89
2021/10/26 08:28:22;;;;;;;12.57;11.47;;;11.00;99.90;;;;;;5007260;28;20690;-90
2021/10/26 08:30:52;;;;;;;12.70;11.50;;;11.10;99.90;;;;;;5012938;28;20627;-90
2021/10/26 08:33:35;;;;;;;16.73;13.07;;;11.70;99.90;;;;;;5009247;28;20658;-90
2021/10/26 08:36:04;;;;;;;13.73;11.80;;;11.80;99.90;;;;;;4992705;28;21069;-91
2021/10/26 08:38:31;;;;;;;13.40;12.20;;;12.10;99.90;;;;;;4997095;28;20638;-93
2021/10/26 08:41:02;;;;;;;13.73;12.40;;;12.40;99.90;;;;;;5009354;28;21264;-92
2021/10/26 08:43:29;;;;;;;12.67;11.50;;;12.70;99.90;;;;;;5014388;28;20670;-91
2021/10/26 08:45:58;;;;;;;14.60;13.10;;;13.00;99.90;;;;;;5013476;28;20660;-91
2021/10/26 08:48:26;;;;;;;13.07;11.80;;;12.70;99.90;;;;;;5014356;28;20648;-92
2021/10/26 08:50:59;;;;;;;13.40;12.30;;;12.90;99.90;;;;;;4992855;28;20992;-90
2021/10/26 08:53:29;;;;;;;12.67;11.33;;;12.90;99.90;;;;;;4995954;28;20632;-90
2021/10/26 08:56:10;;;;;;;13.00;11.90;;;13.10;99.90;;;;;;5011801;28;21231;-92
2021/10/26 08:58:38;;;;;;;12.90;11.80;;;13.40;99.90;;;;;;5013163;28;21146;-92
2021/10/26 09:01:06;;;;;;;12.30;11.10;;;13.70;99.90;;;;;;4997957;28;20638;-93
2021/10/26 09:03:40;;;;;;;10.97;9.87;;;14.10;99.90;;;;;;5010845;28;20659;-95
2021/10/26 09:06:24;;;;;;;11.03;10.03;;;14.40;99.90;;;;;;5010058;28;20670;-92
2021/10/26 09:08:57;;;;;;;12.67;9.83;;;14.60;99.90;;;;;;5012455;28;20673;-93
2021/10/26 09:11:43;;;;;;;10.90;9.80;;;14.40;99.90;;;;;;5017773;28;20640;-91
2021/10/26 09:17:06;;;;;;;10.30;9.23;;;14.00;99.90;;;;;;5013911;28;20611;-93
2021/10/26 09:19:42;;;;;;;10.33;9.40;;;13.80;99.90;;;;;;5013583;28;20665;-92
2021/10/26 09:22:09;;;;;;;11.20;10.10;;;13.70;99.90;;;;;;5014444;28;20624;-93
2021/10/26 09:24:36;;;;;;;12.00;10.73;;;13.80;99.90;;;;;;5012460;28;20655;-95
2021/10/26 09:27:06;;;;;;;12.13;9.63;;;13.80;99.90;;;;;;5012253;28;20692;-93
2021/10/26 09:29:44;;;;;;;10.60;9.60;;;13.80;99.90;;;;;;5007772;28;20580;-96
2021/10/26 09:32:14;;;;;;;10.47;9.43;;;14.20;99.90;;;;;;5012740;28;20679;-94
2021/10/26 09:34:44;;;;;;;11.33;10.20;;;14.80;99.90;;;;;;5012569;28;20659;-93
2021/10/26 09:37:15;;;;;;;12.63;9.87;;;14.80;99.90;;;;;;5011221;28;20722;-94
2021/10/26 09:39:55;;;;;;;9.93;8.97;;;15.10;99.90;;;;;;5013249;28;21228;-93
2021/10/26 09:42:25;;;;;;;9.50;8.50;;;15.20;99.90;;;;;;4979440;28;20686;-94
2021/10/26 09:45:02;;;;;;;9.67;8.97;;;15.30;99.90;;;;;;4994836;28;20678;-91
2021/10/26 09:47:32;;;;;;;10.13;7.80;;;15.50;99.90;;;;;;5010918;28;20634;-93
2021/10/26 09:50:03;;;;;;;10.77;7.90;;;15.40;99.90;;;;;;5014400;28;20638;-92
2021/10/26 09:52:37;;;;;;;9.70;8.73;;;15.40;99.90;;;;;;5011923;28;20635;-96
2021/10/26 09:55:18;;;;;;;10.90;7.57;;;15.80;99.90;;;;;;4995356;28;20663;-95
2021/10/26 10:06:48;;;;;;;8.73;6.53;;;15.70;99.90;;;;;;5026409;28;20652;-96
2021/10/26 10:15:28;;;;;;;10.53;6.27;;;15.70;99.90;;;;;;5033057;28;20663;-96
2021/10/26 10:20:48;;;;;;;7.77;6.23;;;15.60;99.90;;;;;;5020438;28;20736;-96
2021/10/26 10:27:14;;;;;;;10.97;7.40;;;15.40;99.90;;;;;;5019655;28;20695;-96
2021/10/26 10:29:57;;;;;;;7.97;6.70;;;15.60;99.90;;;;;;5007811;28;20623;-96
2021/10/26 10:32:30;;;;;;;9.60;6.80;;;16.70;99.90;;;;;;5025126;28;20670;-96
2021/10/26 10:35:25;;;;;;;8.97;6.00;;;17.10;99.90;;;;;;5013908;28;20759;-96
2021/10/26 10:38:01;;;;;;;7.87;7.17;;;17.30;99.90;;;;;;5020507;28;20628;-96
2021/10/26 10:40:36;;;;;;;9.33;7.10;;;16.70;99.90;;;;;;5022494;28;20690;-96
2021/10/26 10:43:05;;;;;;;7.20;6.60;;;16.10;99.90;;;;;;5009783;28;20628;-96
2021/10/26 10:45:47;;;;;;;6.97;6.37;;;16.00;99.90;;;;;;5030170;28;20690;-96
2021/10/26 10:48:32;;;;;;;7.70;6.50;;;16.10;99.90;;;;;;5033912;28;20642;-96
2021/10/26 11:25:59;;;;;;;12.30;4.50;;;16.70;99.90;;;;;;5028756;28;20640;-96
2021/10/26 11:28:50;;;;;;;6.70;4.80;;;16.60;99.90;;;;;;5008724;28;20696;-96
2021/10/26 11:31:50;;;;;;;5.40;4.60;;;16.40;99.90;;;;;;5026481;28;20686;-96
2021/10/26 11:37:07;;;;;;;7.53;5.27;;;16.10;99.90;;;;;;5024118;28;20624;-96
2021/10/26 11:39:48;;;;;;;6.43;5.60;;;16.30;99.90;;;;;;5038916;28;20647;-96
2021/10/26 11:50:37;;;;;;;4.83;4.33;;;16.30;99.90;;;;;;5018320;28;20731;-96
2021/10/26 11:53:29;;;;;;;6.83;5.67;;;16.00;99.90;;;;;;5036616;28;20711;-96
2021/10/26 11:55:56;;;;;;;6.40;5.57;;;15.80;99.90;;;;;;5026746;28;20774;-96
2021/10/26 11:58:27;;;;;;;5.13;4.33;;;15.80;99.90;;;;;;5024025;28;20627;-96
2021/10/26 12:03:49;;;;;;;5.50;3.90;;;15.80;99.90;;;;;;5015104;28;20707;-96
2021/10/26 12:06:29;;;;;;;5.07;3.90;;;15.80;99.90;;;;;;5017775;28;20671;-96
2021/10/26 12:09:15;;;;;;;4.43;3.73;;;15.80;99.90;;;;;;5018322;28;20690;-96
2021/10/26 12:11:47;;;;;;;4.63;3.00;;;15.80;99.90;;;;;;5017574;28;20738;-95
2021/10/26 12:14:27;;;;;;;6.70;4.10;;;15.70;99.90;;;;;;5019352;28;20632;-96
2021/10/26 12:17:11;;;;;;;6.47;3.37;;;15.50;99.90;;;;;;5020567;28;20643;-96
2021/10/26 12:19:44;;;;;;;5.53;3.53;;;15.50;99.90;;;;;;5026772;28;20663;-96
2021/10/26 12:22:20;;;;;;;4.77;3.20;;;15.50;99.90;;;;;;5031104;28;20632;-96
2021/10/26 12:24:56;;;;;;;4.07;3.33;;;15.40;99.90;;;;;;5004168;28;20694;-95
2021/10/26 12:27:35;;;;;;;5.77;3.03;;;15.40;99.90;;;;;;5019796;28;20663;-96
2021/10/26 12:30:29;;;;;;;3.93;2.90;;;15.30;99.90;;;;;;5015147;28;21233;-96
2021/10/26 12:33:00;;;;;;;3.80;3.00;;;15.40;99.90;;;;;;4979316;28;20690;-95
2021/10/26 12:35:31;;;;;;;4.53;2.53;;;15.20;99.90;;;;;;5009270;28;20694;-94
2021/10/26 12:38:29;;;;;;;2.90;2.60;;;15.10;99.90;;;;;;5011517;28;20635;-95
2021/10/26 12:41:02;;;;;;;3.30;1.97;;;15.10;99.90;;;;;;4971653;28;20991;-94
2021/10/26 12:43:37;;;;;;;6.63;2.60;;;15.10;99.90;;;;;;4996190;28;20624;-95
2021/10/26 12:46:19;;;;;;;5.27;2.20;;;15.10;99.90;;;;;;5009588;28;20678;-95
2021/10/26 12:48:47;;;;;;;6.30;2.47;;;15.20;99.90;;;;;;5007648;28;20647;-94
2021/10/26 12:51:25;;;;;;;4.53;2.40;;;15.20;99.90;;;;;;5012290;28;20743;-95
2021/10/26 12:53:58;;;;;;;4.53;2.40;;;15.30;99.90;;;;;;5012856;28;20701;-95
2021/10/26 12:56:32;;;;;;;3.50;2.70;;;15.20;99.90;;;;;;5015742;28;20681;-96
2021/10/26 12:59:15;;;;;;;3.30;2.60;;;15.30;99.90;;;;;;5000074;28;20670;-96
2021/10/26 13:02:01;;;;;;;3.50;2.17;;;15.30;99.90;;;;;;5016845;28;20632;-96
2021/10/26 13:04:35;;;;;;;2.60;2.40;;;15.30;99.90;;;;;;4993518;28;20612;-95
2021/10/26 13:12:39;;;;;;;4.60;2.30;;;15.50;99.90;;;;;;5022128;28;20612;-94
2021/10/26 13:15:08;;;;;;;2.83;2.40;;;15.30;99.90;;;;;;5015031;28;20666;-95
2021/10/26 13:17:37;;;;;;;7.67;2.50;;;15.40;99.90;;;;;;5011977;28;20639;-94
2021/10/26 13:20:16;;;;;;;3.00;2.40;;;15.50;99.90;;;;;;5014336;28;20627;-95
2021/10/26 13:23:15;;;;;;;3.63;2.80;;;15.40;99.90;;;;;;5015273;28;21116;-95
2021/10/26 13:25:46;;;;;;;4.43;3.10;;;15.30;99.90;;;;;;5015695;28;20758;-95
2021/10/26 13:28:15;;;;;;;4.10;2.00;;;15.40;99.90;;;;;;5009746;28;20726;-92
2021/10/26 13:30:51;;;;;;;2.80;2.50;;;15.50;99.90;;;;;;5011331;28;21226;-92
2021/10/26 13:33:19;;;;;;;4.90;2.23;;;15.40;99.90;;;;;;5005988;28;20677;-91
2021/10/26 13:35:49;;;;;;;5.37;3.40;;;15.70;99.90;;;;;;5010631;28;20721;-92
2021/10/26 13:38:20;;;;;;;6.87;6.13;;;16.00;99.90;;;;;;4999666;28;20729;-92
2021/10/26 13:40:48;;;;;;;8.27;4.70;;;16.30;99.90;;;;;;5005347;28;21221;-92
2021/10/26 13:43:16;;;;;;;5.33;3.07;;;16.90;99.90;;;;;;5011016;28;20626;-91
2021/10/26 13:45:52;;;;;;;5.67;3.17;;;17.30;99.90;;;;;;5011329;28;21135;-92
2021/10/26 13:48:20;;;;;;;6.43;3.07;;;17.40;99.90;;;;;;5017422;28;20647;-92
2021/10/26 13:50:51;;;;;;;4.17;2.97;;;18.00;99.90;;;;;;5025061;28;20759;-94
2021/10/26 13:53:20;;;;;;;3.90;2.70;;;18.40;99.90;;;;;;5005105;28;20655;-92
2021/10/26 13:55:52;;;;;;;3.57;2.57;;;19.20;99.90;;;;;;4999555;28;20652;-93
2021/10/26 13:58:24;;;;;;;2.23;2.13;;;19.90;99.90;;;;;;5012641;28;20623;-94
2021/10/26 14:00:55;;;;;;;3.27;2.93;;;21.00;99.90;;;;;;5019903;28;20627;-93
2021/10/26 14:03:24;;;;;;;3.40;2.40;;;21.50;99.90;;;;;;5009885;28;21020;-94
2021/10/26 14:05:52;;;;;;;4.83;3.07;;;21.60;99.90;;;;;;5013937;28;21329;-94
2021/10/26 14:08:24;;;;;;;3.10;2.80;;;22.10;99.30;;;;;;5018433;28;21263;-94
2021/10/26 14:10:54;;;;;;;4.33;3.00;;;22.80;98.00;;;;;;5014641;28;21032;-94
2021/10/26 14:13:26;;;;;;;3.53;2.33;;;22.70;99.90;;;;;;4995000;28;20638;-94
2021/10/26 14:15:55;;;;;;;5.80;2.80;;;22.80;98.40;;;;;;5015777;28;20643;-95
2021/10/26 14:18:22;;;;;;;8.47;3.07;;;23.40;95.00;;;;;;4999212;28;20620;-95
2021/10/26 14:21:01;;;;;;;4.67;2.30;;;23.10;93.80;;;;;;5001092;28;20624;-95
2021/10/26 14:23:35;;;;;;;3.03;1.90;;;23.80;91.50;;;;;;4996801;28;20627;-94
2021/10/26 14:26:04;;;;;;;3.47;2.17;;;22.80;93.90;;;;;;5010034;28;20710;-95
2021/10/26 14:28:32;;;;;;;4.67;1.90;;;23.10;94.30;;;;;;5010098;28;20730;-94
2021/10/26 14:31:03;;;;;;;2.33;1.50;;;22.80;93.70;;;;;;5008635;28;20660;-95
2021/10/26 14:33:33;;;;;;;2.40;1.80;;;21.20;98.30;;;;;;5010648;28;20659;-96
2021/10/26 14:36:09;;;;;;;3.40;2.10;;;20.70;99.90;;;;;;5024839;28;20679;-95
2021/10/26 14:38:43;;;;;;;3.70;1.90;;;20.00;99.90;;;;;;5031096;28;20630;-94
2021/10/26 14:55:00;;;;;;;2.13;1.57;;;22.10;98.40;;;;;;4990772;28;20749;-94
2021/10/26 14:57:29;;;;;;;1.57;1.40;;;20.90;99.90;;;;;;5013336;28;20638;-94
2021/10/26 14:59:57;;;;;;;3.30;1.80;;;20.20;99.90;;;;;;5008128;28;20675;-94
2021/10/26 15:02:24;;;;;;;2.27;1.40;;;19.40;99.90;;;;;;5005244;28;20645;-94
2021/10/26 15:04:51;;;;;;;2.90;1.70;;;19.10;99.90;;;;;;4998062;28;21035;-96
2021/10/26 15:07:23;;;;;;;3.00;1.90;;;18.80;99.90;;;;;;4997769;28;21173;-95
2021/10/26 15:09:53;;;;;;;3.10;1.53;;;18.90;99.90;;;;;;5016727;28;21522;-96
2021/10/26 15:12:35;;;;;;;2.93;1.53;;;18.30;99.90;;;;;;5008340;28;20731;-96
2021/10/26 15:15:05;;;;;;;3.17;1.80;;;17.70;99.90;;;;;;5031081;28;20655;-95
2021/10/26 15:17:34;;;;;;;1.47;1.30;;;17.20;99.90;;;;;;5032972;28;20607;-96
2021/10/26 15:20:05;;;;;;;4.00;1.87;;;16.80;99.90;;;;;;5011562;28;20636;-96
2021/10/26 15:22:40;;;;;;;4.80;2.03;;;16.30;99.90;;;;;;5034478;28;20638;-96
2021/10/26 15:25:50;;;;;;;1.70;1.57;;;16.10;99.90;;;;;;5028439;28;20675;-95
2021/10/26 15:33:57;;;;;;;4.87;1.90;;;15.30;99.90;;;;;;5012380;28;20878;-94
2021/10/26 15:36:26;;;;;;;3.97;2.47;;;15.10;99.90;;;;;;5008327;28;20670;-94